createdAt,value
2018-08-06T00:00:39.216Z,98443.00
2018-08-06T00:03:10.096Z,98440.00
2018-08-06T00:05:40.291Z,98431.00
2018-08-06T00:08:10.537Z,98432.00
2018-08-06T00:10:40.724Z,98437.00
2018-08-06T00:13:10.924Z,98431.00
2018-08-06T00:15:41.131Z,98435.00
2018-08-06T00:18:11.264Z,98435.00
2018-08-06T00:20:41.448Z,98441.00
2018-08-06T00:23:12.369Z,98441.00
2018-08-06T00:25:42.446Z,98446.00
2018-08-06T00:28:12.626Z,98444.00
2018-08-06T00:30:43.217Z,98444.00
2018-08-06T00:33:13.340Z,98440.00
2018-08-06T00:35:43.581Z,98437.00
2018-08-06T00:38:13.753Z,98435.00
2018-08-06T00:40:43.874Z,98434.00
2018-08-06T00:43:13.978Z,98434.00
2018-08-06T00:45:44.235Z,98429.00
2018-08-06T00:48:14.340Z,98423.00
2018-08-06T00:50:44.975Z,98424.00
2018-08-06T00:53:15.101Z,98422.00
2018-08-06T00:55:45.141Z,98424.00
2018-08-06T00:58:15.245Z,98414.00
2018-08-06T01:00:45.373Z,98417.00
2018-08-06T01:03:15.541Z,98413.00
2018-08-06T01:05:45.677Z,98418.00
2018-08-06T01:08:15.775Z,98417.00
2018-08-06T01:10:45.903Z,98417.00
2018-08-06T01:13:16.164Z,98421.00
2018-08-06T01:15:46.253Z,98417.00
2018-08-06T01:18:16.336Z,98420.00
2018-08-06T01:20:46.503Z,98418.00
2018-08-06T01:23:16.717Z,98421.00
2018-08-06T01:25:46.847Z,98422.00
2018-08-06T01:28:17.532Z,98421.00
2018-08-06T01:30:47.657Z,98424.00
2018-08-06T01:33:18.415Z,98420.00
2018-08-06T01:35:48.712Z,98417.00
2018-08-06T01:38:18.891Z,98414.00
2018-08-06T01:40:49.339Z,98409.00
2018-08-06T01:43:19.690Z,98412.00
2018-08-06T01:45:49.739Z,98413.00
2018-08-06T01:48:19.897Z,98417.00
2018-08-06T01:50:50.019Z,98421.00
2018-08-06T01:53:20.138Z,98420.00
2018-08-06T01:55:50.329Z,98420.00
2018-08-06T01:58:20.459Z,98417.00
2018-08-06T02:00:50.577Z,98419.00
2018-08-06T02:03:20.737Z,98412.00
2018-08-06T02:05:50.790Z,98417.00
2018-08-06T02:08:20.942Z,98415.00
2018-08-06T02:10:51.102Z,98411.00
2018-08-06T02:13:21.315Z,98409.00
2018-08-06T02:15:51.402Z,98411.00
2018-08-06T02:18:22.031Z,98412.00
2018-08-06T02:20:52.217Z,98413.00
2018-08-06T02:23:23.148Z,98412.00
2018-08-06T02:25:53.500Z,98412.00
2018-08-06T02:28:23.676Z,98414.00
2018-08-06T02:30:53.783Z,98413.00
2018-08-06T02:33:24.051Z,98413.00
2018-08-06T02:35:54.239Z,98417.00
2018-08-06T02:38:24.396Z,98413.00
2018-08-06T02:40:54.568Z,98409.00
2018-08-06T02:43:24.695Z,98410.00
2018-08-06T02:45:54.918Z,98407.00
2018-08-06T02:48:25.112Z,98411.00
2018-08-06T02:50:55.188Z,98413.00
2018-08-06T02:53:25.316Z,98412.00
2018-08-06T02:55:55.474Z,98411.00
2018-08-06T02:58:25.666Z,98412.00
2018-08-06T03:00:55.888Z,98412.00
2018-08-06T03:03:26.049Z,98409.00
2018-08-06T03:05:56.126Z,98413.00
2018-08-06T03:08:26.287Z,98412.00
2018-08-06T03:10:56.512Z,98411.00
2018-08-06T03:13:26.670Z,98412.00
2018-08-06T03:15:56.841Z,98411.00
2018-08-06T03:18:27.064Z,98408.00
2018-08-06T03:20:57.196Z,98409.00
2018-08-06T03:23:27.478Z,98410.00
2018-08-06T03:25:57.626Z,98406.00
2018-08-06T03:28:27.853Z,98411.00
2018-08-06T03:30:58.114Z,98408.00
2018-08-06T03:33:28.208Z,98409.00
2018-08-06T03:35:58.329Z,98407.00
2018-08-06T03:38:28.660Z,98407.00
2018-08-06T03:40:58.827Z,98401.00
2018-08-06T03:43:28.889Z,98405.00
2018-08-06T03:45:59.008Z,98406.00
2018-08-06T03:48:29.112Z,98405.00
2018-08-06T03:50:59.324Z,98407.00
2018-08-06T03:53:29.573Z,98402.00
2018-08-06T03:55:59.707Z,98403.00
2018-08-06T03:58:29.775Z,98402.00
2018-08-06T04:00:59.968Z,98408.00
2018-08-06T04:03:30.213Z,98403.00
2018-08-06T04:06:00.323Z,98399.00
2018-08-06T04:08:30.940Z,98400.00
2018-08-06T04:11:01.099Z,98407.00
2018-08-06T04:13:31.296Z,98410.00
2018-08-06T04:16:01.432Z,98417.00
2018-08-06T04:18:31.628Z,98414.00
2018-08-06T04:21:01.816Z,98411.00
2018-08-06T04:23:32.006Z,98413.00
2018-08-06T04:26:02.365Z,98411.00
2018-08-06T04:28:32.550Z,98416.00
2018-08-06T04:31:03.488Z,98416.00
2018-08-06T04:33:33.608Z,98417.00
2018-08-06T04:36:03.752Z,98422.00
2018-08-06T04:38:34.021Z,98425.00
2018-08-06T04:41:04.126Z,98429.00
2018-08-06T04:43:34.276Z,98435.00
2018-08-06T04:46:04.482Z,98438.00
2018-08-06T04:48:34.764Z,98439.00
2018-08-06T04:51:05.009Z,98448.00
2018-08-06T04:53:35.106Z,98447.00
2018-08-06T04:56:05.288Z,98449.00
2018-08-06T04:58:35.406Z,98453.00
2018-08-06T05:01:05.643Z,98449.00
2018-08-06T05:03:35.809Z,98447.00
2018-08-06T05:06:06.216Z,98445.00
2018-08-06T05:08:36.424Z,98446.00
2018-08-06T05:11:06.568Z,98441.00
2018-08-06T05:13:36.810Z,98441.00
2018-08-06T05:16:06.840Z,98442.00
2018-08-06T05:18:36.897Z,98447.00
2018-08-06T05:21:07.098Z,98446.00
2018-08-06T05:23:59.257Z,98448.00
2018-08-06T05:26:30.248Z,98446.00
2018-08-06T05:29:00.411Z,98448.00
2018-08-06T05:31:30.587Z,98449.00
2018-08-06T05:34:00.772Z,98458.00
2018-08-06T05:36:30.877Z,98452.00
2018-08-06T05:39:01.021Z,98456.00
2018-08-06T05:41:31.575Z,98456.00
2018-08-06T05:44:01.697Z,98459.00
2018-08-06T05:46:31.815Z,98461.00
2018-08-06T05:49:02.028Z,98464.00
2018-08-06T05:51:32.208Z,98463.00
2018-08-06T05:54:02.958Z,98465.00
2018-08-06T05:56:33.108Z,98463.00
2018-08-06T05:59:03.237Z,98466.00
2018-08-06T06:01:33.349Z,98465.00
2018-08-06T06:04:03.584Z,98467.00
2018-08-06T06:06:33.826Z,98466.00
2018-08-06T06:09:05.046Z,98467.00
2018-08-06T06:11:35.725Z,98457.00
2018-08-06T06:14:06.971Z,98461.00
2018-08-06T06:16:37.180Z,98462.00
2018-08-06T06:19:07.383Z,98461.00
2018-08-06T06:21:37.439Z,98462.00
2018-08-06T06:24:07.688Z,98464.00
2018-08-06T06:26:37.768Z,98464.00
2018-08-06T06:29:07.899Z,98465.00
2018-08-06T06:31:38.113Z,98468.00
2018-08-06T06:34:08.268Z,98464.00
2018-08-06T06:36:38.391Z,98465.00
2018-08-06T06:39:11.451Z,98473.00
2018-08-06T06:41:42.214Z,98466.00
2018-08-06T06:44:12.299Z,98458.00
2018-08-06T06:46:42.458Z,98460.00
2018-08-06T06:49:12.626Z,98461.00
2018-08-06T06:51:42.698Z,98465.00
2018-08-06T06:54:13.452Z,98467.00
2018-08-06T06:56:43.665Z,98462.00
2018-08-06T06:59:13.973Z,98459.00
2018-08-06T07:01:44.025Z,98454.00
2018-08-06T07:04:14.314Z,98450.00
2018-08-06T07:06:44.350Z,98446.00
2018-08-06T07:09:14.478Z,98443.00
2018-08-06T07:11:44.688Z,98435.00
2018-08-06T07:14:14.935Z,98439.00
2018-08-06T07:16:45.089Z,98436.00
2018-08-06T07:19:15.177Z,98429.00
2018-08-06T07:21:45.412Z,98427.00
2018-08-06T07:24:15.534Z,98429.00
2018-08-06T07:26:45.744Z,98428.00
2018-08-06T07:29:15.906Z,98429.00
2018-08-06T07:31:46.468Z,98424.00
2018-08-06T07:34:16.624Z,98421.00
2018-08-06T07:36:46.840Z,98419.00
2018-08-06T07:39:17.017Z,98413.00
2018-08-06T07:41:46.851Z,98409.00
2018-08-06T07:44:16.973Z,98413.00
2018-08-06T07:46:47.242Z,98411.00
2018-08-06T07:49:17.321Z,98415.00
2018-08-06T07:51:47.395Z,98412.00
2018-08-06T07:54:17.606Z,98410.00
2018-08-06T07:56:47.877Z,98404.00
2018-08-06T07:59:18.004Z,98395.00
2018-08-06T08:01:48.143Z,98393.00
2018-08-06T08:04:18.455Z,98392.00
2018-08-06T08:06:48.681Z,98387.00
2018-08-06T08:09:18.851Z,98388.00
2018-08-06T08:11:49.039Z,98392.00
2018-08-06T08:14:19.551Z,98391.00
2018-08-06T08:16:49.751Z,98383.00
2018-08-06T08:19:19.923Z,98394.00
2018-08-06T08:21:50.849Z,98392.00
2018-08-06T08:24:20.992Z,98387.00
2018-08-06T08:26:51.411Z,98386.00
2018-08-06T08:29:22.195Z,98384.00
2018-08-06T08:31:52.415Z,98382.00
2018-08-06T08:34:22.907Z,98378.00
2018-08-06T08:36:53.021Z,98376.00
2018-08-06T08:39:23.219Z,98372.00
2018-08-06T08:41:53.455Z,98373.00
2018-08-06T08:44:24.431Z,98374.00
2018-08-06T08:46:54.590Z,98370.00
2018-08-06T08:49:25.397Z,98363.00
2018-08-06T08:51:55.920Z,98357.00
2018-08-06T08:54:26.528Z,98352.00
2018-08-06T08:56:56.622Z,98348.00
2018-08-06T08:59:26.767Z,98346.00
2018-08-06T09:01:56.857Z,98343.00
2018-08-06T09:04:27.381Z,98341.00
2018-08-06T09:06:57.587Z,98336.00
2018-08-06T09:09:27.669Z,98335.00
2018-08-06T09:11:57.751Z,98331.00
2018-08-06T09:14:27.879Z,98332.00
2018-08-06T09:16:58.055Z,98327.00
2018-08-06T09:19:28.255Z,98322.00
2018-08-06T09:21:58.595Z,98323.00
2018-08-06T09:24:29.313Z,98324.00
2018-08-06T09:26:59.174Z,98324.00
2018-08-06T09:29:29.313Z,98325.00
2018-08-06T09:31:59.477Z,98324.00
2018-08-06T09:34:29.791Z,98329.00
2018-08-06T09:36:59.930Z,98325.00
2018-08-06T09:39:30.169Z,98318.00
2018-08-06T09:42:00.423Z,98311.00
2018-08-06T09:44:30.773Z,98308.00
2018-08-06T09:47:01.139Z,98309.00
2018-08-06T09:49:32.104Z,98306.00
2018-08-06T09:52:02.180Z,98300.00
2018-08-06T09:54:51.041Z,98296.00
2018-08-06T09:57:21.227Z,98292.00
2018-08-06T09:59:52.405Z,98296.00
2018-08-06T10:02:22.333Z,98294.00
2018-08-06T10:04:52.376Z,98296.00
2018-08-06T10:07:22.545Z,98289.00
2018-08-06T10:09:52.719Z,98287.00
2018-08-06T10:12:22.866Z,98282.00
2018-08-06T10:14:53.108Z,98284.00
2018-08-06T10:17:23.371Z,98269.00
2018-08-06T10:20:05.541Z,98266.00
2018-08-06T10:22:35.620Z,98263.00
2018-08-06T10:25:07.312Z,98263.00
2018-08-06T10:27:37.982Z,98259.00
2018-08-06T10:30:13.410Z,98259.00
2018-08-06T10:32:44.000Z,98256.00
2018-08-06T10:35:15.378Z,98254.00
2018-08-06T10:37:45.706Z,98253.00
2018-08-06T10:40:18.443Z,98250.00
2018-08-06T10:42:49.564Z,98245.00
2018-08-06T10:45:22.807Z,98241.00
2018-08-06T10:47:53.307Z,98235.00
2018-08-06T10:50:23.566Z,98238.00
2018-08-06T10:52:53.704Z,98233.00
2018-08-06T10:55:23.889Z,98230.00
2018-08-06T10:57:54.040Z,98226.00
2018-08-06T11:00:24.561Z,98225.00
2018-08-06T11:02:55.082Z,98224.00
2018-08-06T11:05:25.151Z,98223.00
2018-08-06T11:07:55.233Z,98225.00
2018-08-06T11:10:25.458Z,98221.00
2018-08-06T11:12:55.610Z,98217.00
2018-08-06T11:15:26.826Z,98210.00
2018-08-06T11:17:56.955Z,98205.00
2018-08-06T11:20:27.104Z,98199.00
2018-08-06T11:22:57.239Z,98192.00
2018-08-06T11:25:27.388Z,98191.00
2018-08-06T11:27:57.528Z,98188.00
2018-08-06T11:30:27.613Z,98187.00
2018-08-06T11:32:57.724Z,98191.00
2018-08-06T11:35:27.919Z,98187.00
2018-08-06T11:37:58.142Z,98184.00
2018-08-06T11:40:28.250Z,98183.00
2018-08-06T11:42:58.397Z,98179.00
2018-08-06T11:45:28.524Z,98174.00
2018-08-06T11:47:58.578Z,98168.00
2018-08-06T11:50:28.725Z,98157.00
2018-08-06T11:52:58.871Z,98156.00
2018-08-06T11:55:28.992Z,98158.00
2018-08-06T11:57:59.116Z,98155.00
2018-08-06T12:00:29.308Z,98152.00
2018-08-06T12:02:59.526Z,98155.00
2018-08-06T12:05:29.669Z,98149.00
2018-08-06T12:07:59.839Z,98151.00
2018-08-06T12:10:29.998Z,98149.00
2018-08-06T12:13:00.066Z,98141.00
2018-08-06T12:15:30.257Z,98140.00
2018-08-06T12:18:00.321Z,98140.00
2018-08-06T12:20:30.951Z,98136.00
2018-08-06T12:23:01.100Z,98138.00
2018-08-06T12:25:32.097Z,98133.00
2018-08-06T12:28:02.423Z,98136.00
2018-08-06T12:30:32.653Z,98129.00
2018-08-06T12:33:02.828Z,98122.00
2018-08-06T12:35:32.920Z,98127.00
2018-08-06T12:38:03.082Z,98126.00
2018-08-06T12:40:33.242Z,98123.00
2018-08-06T12:43:03.308Z,98120.00
2018-08-06T12:45:33.436Z,98124.00
2018-08-06T12:48:03.674Z,98115.00
2018-08-06T12:50:33.891Z,98110.00
2018-08-06T12:53:04.096Z,98106.00
2018-08-06T12:55:34.211Z,98101.00
2018-08-06T12:58:04.309Z,98103.00
2018-08-06T13:00:34.487Z,98098.00
2018-08-06T13:03:04.655Z,98099.00
2018-08-06T13:05:34.789Z,98095.00
2018-08-06T13:08:05.009Z,98093.00
2018-08-06T13:10:35.160Z,98084.00
2018-08-06T13:13:05.264Z,98078.00
2018-08-06T13:15:35.489Z,98079.00
2018-08-06T13:18:06.184Z,98083.00
2018-08-06T13:20:36.237Z,98075.00
2018-08-06T13:23:07.136Z,98069.00
2018-08-06T13:25:37.296Z,98063.00
2018-08-06T13:28:07.465Z,98063.00
2018-08-06T13:30:37.689Z,98068.00
2018-08-06T13:33:07.914Z,98062.00
2018-08-06T13:35:38.021Z,98058.00
2018-08-06T13:38:08.215Z,98060.00
2018-08-06T13:40:39.540Z,98060.00
2018-08-06T13:43:09.814Z,98055.00
2018-08-06T13:45:40.149Z,98051.00
2018-08-06T13:48:10.310Z,98044.00
2018-08-06T13:50:40.590Z,98043.00
2018-08-06T13:53:11.027Z,98036.00
2018-08-06T13:55:41.104Z,98035.00
2018-08-06T13:58:11.271Z,98032.00
2018-08-06T14:00:41.476Z,98031.00
2018-08-06T14:03:11.583Z,98023.00
2018-08-06T14:05:41.801Z,98022.00
2018-08-06T14:08:11.982Z,98018.00
2018-08-06T14:10:42.347Z,98016.00
2018-08-06T14:13:12.895Z,98014.00
2018-08-06T14:15:43.075Z,98012.00
2018-08-06T14:18:13.110Z,98006.00
2018-08-06T14:20:43.247Z,98006.00
2018-08-06T14:23:13.472Z,98000.00
2018-08-06T14:25:43.568Z,97997.00
2018-08-06T14:28:13.786Z,97997.00
2018-08-06T14:30:43.851Z,97988.00
2018-08-06T14:33:14.096Z,97988.00
2018-08-06T14:35:44.294Z,97976.00
2018-08-06T14:38:14.334Z,97977.00
2018-08-06T14:40:44.453Z,97974.00
2018-08-06T14:43:14.904Z,97974.00
2018-08-06T14:45:45.215Z,97972.00
2018-08-06T14:48:15.302Z,97968.00
2018-08-06T14:50:45.403Z,97966.00
2018-08-06T14:53:15.492Z,97966.00
2018-08-06T14:55:45.608Z,97964.00
2018-08-06T14:58:15.764Z,97958.00
2018-08-06T15:00:46.050Z,97957.00
2018-08-06T15:03:16.161Z,97952.00
2018-08-06T15:05:46.292Z,97949.00
2018-08-06T15:08:17.003Z,97945.00
2018-08-06T15:10:47.109Z,97946.00
2018-08-06T15:13:17.575Z,97937.00
2018-08-06T15:15:47.908Z,97935.00
2018-08-06T15:18:18.088Z,97931.00
2018-08-06T15:20:48.212Z,97921.00
2018-08-06T15:23:18.402Z,97922.00
2018-08-06T15:25:48.672Z,97913.00
2018-08-06T15:28:18.784Z,97906.00
2018-08-06T15:30:48.926Z,97908.00
2018-08-06T15:33:19.051Z,97899.00
2018-08-06T15:35:49.218Z,97894.00
2018-08-06T15:38:19.388Z,97897.00
2018-08-06T15:40:49.646Z,97888.00
2018-08-06T15:43:19.756Z,97885.00
2018-08-06T15:45:49.904Z,97886.00
2018-08-06T15:48:19.949Z,97882.00
2018-08-06T15:50:50.100Z,97887.00
2018-08-06T15:53:20.222Z,97878.00
2018-08-06T15:55:50.270Z,97868.00
2018-08-06T15:58:20.342Z,97872.00
2018-08-06T16:00:50.582Z,97870.00
2018-08-06T16:03:20.797Z,97865.00
2018-08-06T16:05:51.005Z,97863.00
2018-08-06T16:08:21.100Z,97856.00
2018-08-06T16:10:51.240Z,97859.00
2018-08-06T16:13:22.112Z,97858.00
2018-08-06T16:15:52.298Z,97855.00
2018-08-06T16:18:22.465Z,97854.00
2018-08-06T16:20:52.546Z,97851.00
2018-08-06T16:23:22.743Z,97853.00
2018-08-06T16:25:52.921Z,97846.00
2018-08-06T16:28:23.053Z,97853.00
2018-08-06T16:30:53.190Z,97849.00
2018-08-06T16:33:23.283Z,97846.00
2018-08-06T16:35:54.839Z,97852.00
2018-08-06T16:38:25.123Z,97845.00
2018-08-06T16:40:55.205Z,97849.00
2018-08-06T16:43:25.258Z,97849.00
2018-08-06T16:45:55.515Z,97848.00
2018-08-06T16:48:25.790Z,97847.00
2018-08-06T16:50:55.883Z,97848.00
2018-08-06T16:53:26.185Z,97844.00
2018-08-06T16:55:56.265Z,97851.00
2018-08-06T16:58:26.364Z,97845.00
2018-08-06T17:00:56.632Z,97847.00
2018-08-06T17:03:26.734Z,97847.00
2018-08-06T17:05:56.875Z,97846.00
2018-08-06T17:08:28.183Z,97841.00
2018-08-06T17:10:58.409Z,97850.00
2018-08-06T17:13:28.534Z,97847.00
2018-08-06T17:15:58.714Z,97852.00
2018-08-06T17:18:28.866Z,97850.00
2018-08-06T17:20:59.035Z,97848.00
2018-08-06T17:23:29.256Z,97850.00
2018-08-06T17:25:59.493Z,97851.00
2018-08-06T17:28:29.587Z,97847.00
2018-08-06T17:30:59.771Z,97844.00
2018-08-06T17:33:30.054Z,97845.00
2018-08-06T17:36:00.187Z,97851.00
2018-08-06T17:38:30.480Z,97848.00
2018-08-06T17:41:01.391Z,97848.00
2018-08-06T17:43:31.587Z,97842.00
2018-08-06T17:46:01.778Z,97842.00
2018-08-06T17:48:31.897Z,97841.00
2018-08-06T17:51:01.954Z,97841.00
2018-08-06T17:53:32.084Z,97845.00
2018-08-06T17:56:02.322Z,97836.00
2018-08-06T17:58:32.684Z,97842.00
2018-08-06T18:01:02.901Z,97850.00
2018-08-06T18:03:33.228Z,97848.00
2018-08-06T18:06:03.422Z,97848.00
2018-08-06T18:08:33.693Z,97849.00
2018-08-06T18:11:03.910Z,97855.00
2018-08-06T18:13:34.752Z,97858.00
2018-08-06T18:16:05.560Z,97865.00
2018-08-06T18:18:35.654Z,97868.00
2018-08-06T18:21:05.880Z,97868.00
2018-08-06T18:23:36.080Z,97872.00
2018-08-06T18:26:06.275Z,97873.00
2018-08-06T18:28:36.379Z,97879.00
2018-08-06T18:31:06.578Z,97878.00
2018-08-06T18:33:36.709Z,97882.00
2018-08-06T18:36:07.044Z,97886.00
2018-08-06T18:38:37.266Z,97887.00
2018-08-06T18:41:08.144Z,97887.00
2018-08-06T18:43:38.783Z,97886.00
2018-08-06T18:46:08.940Z,97893.00
2018-08-06T18:48:39.078Z,97898.00
2018-08-06T18:51:09.143Z,97896.00
2018-08-06T18:53:39.204Z,97902.00
2018-08-06T18:56:09.348Z,97907.00
2018-08-06T18:58:39.516Z,97905.00
2018-08-06T19:01:09.935Z,97910.00
2018-08-06T19:03:40.150Z,97914.00
2018-08-06T19:06:10.205Z,97910.00
2018-08-06T19:08:40.367Z,97914.00
2018-08-06T19:11:10.517Z,97919.00
2018-08-06T19:13:46.441Z,97919.00
2018-08-06T19:16:16.563Z,97913.00
2018-08-06T19:18:52.094Z,97915.00
2018-08-06T19:21:22.162Z,97918.00
2018-08-06T19:23:56.425Z,97926.00
2018-08-06T19:26:26.605Z,97928.00
2018-08-06T19:28:56.700Z,97927.00
2018-08-06T19:31:27.905Z,97924.00
2018-08-06T19:33:58.776Z,97924.00
2018-08-06T19:36:33.118Z,97927.00
2018-08-06T19:39:03.384Z,97930.00
2018-08-06T19:41:33.573Z,97926.00
2018-08-06T19:44:04.153Z,97931.00
2018-08-06T19:46:34.363Z,97930.00
2018-08-06T19:49:08.669Z,97927.00
2018-08-06T19:51:38.869Z,97931.00
2018-08-06T19:54:09.252Z,97932.00
2018-08-06T19:56:39.372Z,97933.00
2018-08-06T19:59:10.448Z,97938.00
2018-08-06T20:01:40.637Z,97939.00
2018-08-06T20:04:10.685Z,97943.00
2018-08-06T20:06:40.875Z,97939.00
2018-08-06T20:09:13.999Z,97940.00
2018-08-06T20:11:45.023Z,97945.00
2018-08-06T20:14:15.131Z,97944.00
2018-08-06T20:16:45.341Z,97945.00
2018-08-06T20:19:15.546Z,97940.00
2018-08-06T20:21:45.656Z,97938.00
2018-08-06T20:24:15.849Z,97939.00
2018-08-06T20:26:49.469Z,97942.00
2018-08-06T20:29:19.662Z,97945.00
2018-08-06T20:31:49.804Z,97945.00
2018-08-06T20:34:20.533Z,97940.00
2018-08-06T20:36:50.725Z,97939.00
2018-08-06T20:39:20.774Z,97937.00
2018-08-06T20:41:50.875Z,97939.00
2018-08-06T20:44:22.482Z,97936.00
2018-08-06T20:46:52.755Z,97934.00
2018-08-06T20:49:23.144Z,97940.00
2018-08-06T20:51:53.316Z,97940.00
2018-08-06T20:54:24.334Z,97943.00
2018-08-06T20:56:54.668Z,97943.00
2018-08-06T20:59:25.283Z,97950.00
2018-08-06T21:01:55.578Z,97949.00
2018-08-06T21:04:25.863Z,97944.00
2018-08-06T21:06:56.079Z,97947.00
2018-08-06T21:09:26.447Z,97948.00
2018-08-06T21:11:56.657Z,97958.00
2018-08-06T21:14:50.454Z,97962.00
2018-08-06T21:17:20.732Z,97966.00
2018-08-06T21:19:50.733Z,97968.00
2018-08-06T21:22:32.448Z,97967.00
2018-08-06T21:25:02.527Z,97966.00
2018-08-06T21:27:32.646Z,97965.00
2018-08-06T21:30:02.874Z,97970.00
2018-08-06T21:32:33.003Z,97968.00
2018-08-06T21:35:03.122Z,97970.00
2018-08-06T21:37:33.302Z,97979.00
2018-08-06T21:40:03.566Z,97982.00
2018-08-06T21:42:33.717Z,97979.00
2018-08-06T21:45:03.812Z,97978.00
2018-08-06T21:47:34.015Z,97980.00
2018-08-06T21:50:08.201Z,97981.00
2018-08-06T21:52:38.332Z,97981.00
2018-08-06T21:55:09.221Z,97984.00
2018-08-06T21:57:39.613Z,97982.00
2018-08-06T22:00:32.229Z,97987.00
2018-08-06T22:03:04.421Z,97984.00
2018-08-06T22:05:34.854Z,97981.00
2018-08-06T22:08:04.981Z,97977.00
2018-08-06T22:10:35.129Z,97977.00
2018-08-06T22:13:05.769Z,97975.00
2018-08-06T22:15:35.802Z,97973.00
2018-08-06T22:18:06.740Z,97970.00
2018-08-06T22:20:37.424Z,97978.00
2018-08-06T22:23:08.111Z,97972.00
2018-08-06T22:25:38.371Z,97968.00
2018-08-06T22:28:12.021Z,97968.00
2018-08-06T22:30:43.068Z,97970.00
2018-08-06T22:33:13.215Z,97974.00
2018-08-06T22:35:43.407Z,97971.00
2018-08-06T22:38:13.678Z,97970.00
2018-08-06T22:40:43.910Z,97972.00
2018-08-06T22:43:14.025Z,97974.00
2018-08-06T22:45:46.147Z,97967.00
2018-08-06T22:48:16.377Z,97966.00
2018-08-06T22:50:46.467Z,97960.00
2018-08-06T22:53:16.602Z,97956.00
2018-08-06T22:56:00.234Z,97949.00
2018-08-06T22:58:30.434Z,97950.00
2018-08-06T23:01:00.862Z,97939.00
2018-08-06T23:03:31.638Z,97943.00
2018-08-06T23:06:01.936Z,97941.00
2018-08-06T23:08:32.165Z,97943.00
2018-08-06T23:11:02.263Z,97944.00
2018-08-06T23:13:32.438Z,97944.00
2018-08-06T23:16:02.645Z,97945.00
2018-08-06T23:18:32.817Z,97940.00
2018-08-06T23:21:02.950Z,97939.00
2018-08-06T23:23:33.062Z,97936.00
2018-08-06T23:26:03.322Z,97936.00
2018-08-06T23:28:33.432Z,97939.00
2018-08-06T23:31:04.418Z,97937.00
2018-08-06T23:33:34.801Z,97943.00
2018-08-06T23:36:05.043Z,97933.00
2018-08-06T23:38:35.156Z,97937.00
2018-08-06T23:41:06.332Z,97936.00
2018-08-06T23:43:36.429Z,97940.00
2018-08-06T23:46:07.233Z,97941.00
2018-08-06T23:48:37.468Z,97938.00
2018-08-06T23:51:08.571Z,97934.00
2018-08-06T23:53:38.702Z,97938.00
2018-08-06T23:56:08.758Z,97931.00
2018-08-06T23:58:38.879Z,97929.00
